sensor_id;sensor_type;location;lat;lon;timestamp;P1;durP1;ratioP1;P2;durP2;ratioP2
13927;SDS011;7036;50.834;4.718;2022-12-20T00:01:07;1.85;;;1.25;;
13927;SDS011;7036;50.834;4.718;2022-12-20T00:03:35;1.05;;;0.95;;
13927;SDS011;7036;50.834;4.718;2022-12-20T00:06:03;1.60;;;1.10;;
13927;SDS011;7036;50.834;4.718;2022-12-20T00:08:31;1.33;;;0.95;;
13927;SDS011;7036;50.834;4.718;2022-12-20T00:11:00;1.92;;;0.90;;
13927;SDS011;7036;50.834;4.718;2022-12-20T00:13:28;1.88;;;1.58;;
13927;SDS011;7036;50.834;4.718;2022-12-20T00:16:04;1.13;;;1.00;;
13927;SDS011;7036;50.834;4.718;2022-12-20T00:18:36;2.10;;;1.33;;
13927;SDS011;7036;50.834;4.718;2022-12-20T00:21:03;1.20;;;0.80;;
13927;SDS011;7036;50.834;4.718;2022-12-20T00:23:31;1.73;;;1.00;;
13927;SDS011;7036;50.834;4.718;2022-12-20T00:26:09;1.83;;;1.10;;
13927;SDS011;7036;50.834;4.718;2022-12-20T00:28:28;1.37;;;1.27;;
13927;SDS011;7036;50.834;4.718;2022-12-20T00:30:56;1.13;;;1.02;;
13927;SDS011;7036;50.834;4.718;2022-12-20T00:33:24;1.48;;;1.13;;
13927;SDS011;7036;50.834;4.718;2022-12-20T00:35:53;0.80;;;0.80;;
13927;SDS011;7036;50.834;4.718;2022-12-20T00:38:19;2.00;;;1.15;;
13927;SDS011;7036;50.834;4.718;2022-12-20T00:40:47;1.05;;;0.95;;
13927;SDS011;7036;50.834;4.718;2022-12-20T00:43:15;1.55;;;1.05;;
13927;SDS011;7036;50.834;4.718;2022-12-20T00:45:43;1.48;;;1.10;;
13927;SDS011;7036;50.834;4.718;2022-12-20T00:48:10;1.70;;;1.13;;
13927;SDS011;7036;50.834;4.718;2022-12-20T00:50:37;1.10;;;1.00;;
13927;SDS011;7036;50.834;4.718;2022-12-20T00:53:04;2.78;;;1.02;;
13927;SDS011;7036;50.834;4.718;2022-12-20T00:55:31;1.10;;;1.00;;
13927;SDS011;7036;50.834;4.718;2022-12-20T00:57:58;1.02;;;0.90;;
13927;SDS011;7036;50.834;4.718;2022-12-20T01:00:26;1.17;;;0.95;;
13927;SDS011;7036;50.834;4.718;2022-12-20T01:02:54;1.75;;;0.98;;
13927;SDS011;7036;50.834;4.718;2022-12-20T01:05:21;1.33;;;0.88;;
13927;SDS011;7036;50.834;4.718;2022-12-20T01:07:49;1.60;;;1.05;;
13927;SDS011;7036;50.834;4.718;2022-12-20T01:10:16;1.27;;;1.10;;
13927;SDS011;7036;50.834;4.718;2022-12-20T01:12:43;1.00;;;0.90;;
13927;SDS011;7036;50.834;4.718;2022-12-20T01:15:11;2.42;;;1.30;;
13927;SDS011;7036;50.834;4.718;2022-12-20T01:17:39;1.80;;;1.15;;
13927;SDS011;7036;50.834;4.718;2022-12-20T01:20:07;1.73;;;1.20;;
13927;SDS011;7036;50.834;4.718;2022-12-20T01:22:35;1.42;;;1.05;;
13927;SDS011;7036;50.834;4.718;2022-12-20T01:25:03;1.23;;;0.90;;
13927;SDS011;7036;50.834;4.718;2022-12-20T01:27:30;1.05;;;0.90;;
13927;SDS011;7036;50.834;4.718;2022-12-20T01:29:58;1.95;;;1.20;;
13927;SDS011;7036;50.834;4.718;2022-12-20T01:32:26;1.30;;;1.10;;
13927;SDS011;7036;50.834;4.718;2022-12-20T01:34:54;1.00;;;0.93;;
13927;SDS011;7036;50.834;4.718;2022-12-20T01:37:21;1.60;;;1.17;;
13927;SDS011;7036;50.834;4.718;2022-12-20T01:39:49;1.58;;;1.17;;
13927;SDS011;7036;50.834;4.718;2022-12-20T01:42:16;1.25;;;0.75;;
13927;SDS011;7036;50.834;4.718;2022-12-20T01:47:10;1.13;;;1.13;;
13927;SDS011;7036;50.834;4.718;2022-12-20T01:49:39;0.77;;;0.77;;
13927;SDS011;7036;50.834;4.718;2022-12-20T01:52:55;1.37;;;1.00;;
13927;SDS011;7036;50.834;4.718;2022-12-20T01:54:41;1.87;;;1.30;;
13927;SDS011;7036;50.834;4.718;2022-12-20T01:57:08;0.85;;;0.80;;
13927;SDS011;7036;50.834;4.718;2022-12-20T01:59:36;1.98;;;1.20;;
13927;SDS011;7036;50.834;4.718;2022-12-20T02:02:04;1.40;;;1.08;;
13927;SDS011;7036;50.834;4.718;2022-12-20T02:04:29;1.02;;;0.70;;
13927;SDS011;7036;50.834;4.718;2022-12-20T02:06:57;1.63;;;1.17;;
13927;SDS011;7036;50.834;4.718;2022-12-20T02:09:25;1.25;;;0.98;;
13927;SDS011;7036;50.834;4.718;2022-12-20T02:12:00;1.35;;;1.00;;
13927;SDS011;7036;50.834;4.718;2022-12-20T02:14:41;1.30;;;0.87;;
13927;SDS011;7036;50.834;4.718;2022-12-20T02:20:04;1.13;;;0.93;;
13927;SDS011;7036;50.834;4.718;2022-12-20T02:22:34;0.97;;;0.83;;
13927;SDS011;7036;50.834;4.718;2022-12-20T02:25:13;1.20;;;1.10;;
13927;SDS011;7036;50.834;4.718;2022-12-20T02:27:48;1.37;;;1.10;;
13927;SDS011;7036;50.834;4.718;2022-12-20T02:30:21;1.10;;;1.00;;
13927;SDS011;7036;50.834;4.718;2022-12-20T02:35:28;1.10;;;1.00;;
13927;SDS011;7036;50.834;4.718;2022-12-20T02:37:56;1.02;;;0.93;;
13927;SDS011;7036;50.834;4.718;2022-12-20T02:40:26;1.43;;;1.00;;
13927;SDS011;7036;50.834;4.718;2022-12-20T02:42:55;2.53;;;0.90;;
13927;SDS011;7036;50.834;4.718;2022-12-20T02:45:21;1.25;;;1.15;;
13927;SDS011;7036;50.834;4.718;2022-12-20T02:47:54;2.53;;;1.00;;
13927;SDS011;7036;50.834;4.718;2022-12-20T02:50:23;1.00;;;0.90;;
13927;SDS011;7036;50.834;4.718;2022-12-20T02:52:52;1.07;;;0.83;;
13927;SDS011;7036;50.834;4.718;2022-12-20T02:55:19;1.57;;;1.40;;
13927;SDS011;7036;50.834;4.718;2022-12-20T03:00:16;1.23;;;0.90;;
13927;SDS011;7036;50.834;4.718;2022-12-20T03:02:43;1.20;;;1.10;;
13927;SDS011;7036;50.834;4.718;2022-12-20T03:05:28;4.20;;;1.17;;
13927;SDS011;7036;50.834;4.718;2022-12-20T03:07:56;1.25;;;0.93;;
13927;SDS011;7036;50.834;4.718;2022-12-20T03:10:24;1.00;;;0.88;;
13927;SDS011;7036;50.834;4.718;2022-12-20T03:12:52;1.00;;;0.90;;
13927;SDS011;7036;50.834;4.718;2022-12-20T03:15:19;1.35;;;1.05;;
13927;SDS011;7036;50.834;4.718;2022-12-20T03:17:46;0.82;;;0.75;;
13927;SDS011;7036;50.834;4.718;2022-12-20T03:20:14;3.53;;;1.23;;
13927;SDS011;7036;50.834;4.718;2022-12-20T03:22:41;1.05;;;0.80;;
13927;SDS011;7036;50.834;4.718;2022-12-20T03:25:08;0.75;;;0.70;;
13927;SDS011;7036;50.834;4.718;2022-12-20T03:27:36;3.17;;;0.98;;
13927;SDS011;7036;50.834;4.718;2022-12-20T03:30:03;0.85;;;0.80;;
13927;SDS011;7036;50.834;4.718;2022-12-20T03:32:30;1.23;;;1.00;;
13927;SDS011;7036;50.834;4.718;2022-12-20T03:34:58;1.05;;;0.95;;
13927;SDS011;7036;50.834;4.718;2022-12-20T03:37:25;0.90;;;0.80;;
13927;SDS011;7036;50.834;4.718;2022-12-20T03:39:52;0.85;;;0.75;;
13927;SDS011;7036;50.834;4.718;2022-12-20T03:42:20;2.42;;;0.90;;
13927;SDS011;7036;50.834;4.718;2022-12-20T03:44:48;1.13;;;1.02;;
13927;SDS011;7036;50.834;4.718;2022-12-20T03:47:15;1.95;;;0.95;;
13927;SDS011;7036;50.834;4.718;2022-12-20T03:49:43;1.63;;;0.90;;
13927;SDS011;7036;50.834;4.718;2022-12-20T03:52:13;1.80;;;1.10;;
13927;SDS011;7036;50.834;4.718;2022-12-20T03:54:39;1.70;;;0.80;;
13927;SDS011;7036;50.834;4.718;2022-12-20T03:57:07;1.45;;;1.20;;
13927;SDS011;7036;50.834;4.718;2022-12-20T03:59:34;1.35;;;0.95;;
13927;SDS011;7036;50.834;4.718;2022-12-20T04:02:02;1.15;;;0.88;;
13927;SDS011;7036;50.834;4.718;2022-12-20T04:04:29;0.98;;;0.88;;
13927;SDS011;7036;50.834;4.718;2022-12-20T04:06:56;1.55;;;0.70;;
13927;SDS011;7036;50.834;4.718;2022-12-20T04:09:24;1.77;;;1.05;;
13927;SDS011;7036;50.834;4.718;2022-12-20T04:11:51;0.88;;;0.88;;
13927;SDS011;7036;50.834;4.718;2022-12-20T04:14:18;0.80;;;0.80;;
13927;SDS011;7036;50.834;4.718;2022-12-20T04:16:46;1.30;;;1.17;;
13927;SDS011;7036;50.834;4.718;2022-12-20T04:19:13;1.70;;;0.85;;
13927;SDS011;7036;50.834;4.718;2022-12-20T04:21:41;0.95;;;0.90;;
13927;SDS011;7036;50.834;4.718;2022-12-20T04:24:09;0.93;;;0.93;;
13927;SDS011;7036;50.834;4.718;2022-12-20T04:26:37;1.25;;;0.80;;
13927;SDS011;7036;50.834;4.718;2022-12-20T04:29:04;0.98;;;0.93;;
13927;SDS011;7036;50.834;4.718;2022-12-20T04:31:32;1.15;;;1.05;;
13927;SDS011;7036;50.834;4.718;2022-12-20T04:34:00;0.98;;;0.80;;
13927;SDS011;7036;50.834;4.718;2022-12-20T04:36:28;1.20;;;0.95;;
13927;SDS011;7036;50.834;4.718;2022-12-20T04:38:55;0.88;;;0.88;;
13927;SDS011;7036;50.834;4.718;2022-12-20T04:41:22;1.45;;;0.93;;
13927;SDS011;7036;50.834;4.718;2022-12-20T04:43:50;1.50;;;0.77;;
13927;SDS011;7036;50.834;4.718;2022-12-20T04:46:17;0.80;;;0.80;;
13927;SDS011;7036;50.834;4.718;2022-12-20T04:48:44;0.80;;;0.70;;
13927;SDS011;7036;50.834;4.718;2022-12-20T04:51:11;0.93;;;0.80;;
13927;SDS011;7036;50.834;4.718;2022-12-20T04:53:39;0.93;;;0.90;;
13927;SDS011;7036;50.834;4.718;2022-12-20T04:56:18;1.30;;;1.00;;
13927;SDS011;7036;50.834;4.718;2022-12-20T04:58:48;1.33;;;0.90;;
13927;SDS011;7036;50.834;4.718;2022-12-20T05:01:13;1.67;;;1.23;;
13927;SDS011;7036;50.834;4.718;2022-12-20T05:03:41;1.48;;;1.30;;
13927;SDS011;7036;50.834;4.718;2022-12-20T05:06:09;3.03;;;1.00;;
13927;SDS011;7036;50.834;4.718;2022-12-20T05:08:39;0.70;;;0.70;;
13927;SDS011;7036;50.834;4.718;2022-12-20T05:11:05;1.43;;;0.90;;
13927;SDS011;7036;50.834;4.718;2022-12-20T05:13:33;1.25;;;0.70;;
13927;SDS011;7036;50.834;4.718;2022-12-20T05:15:59;0.80;;;0.73;;
13927;SDS011;7036;50.834;4.718;2022-12-20T05:18:27;1.15;;;0.90;;
13927;SDS011;7036;50.834;4.718;2022-12-20T05:20:56;1.85;;;1.20;;
13927;SDS011;7036;50.834;4.718;2022-12-20T05:23:40;1.47;;;0.97;;
13927;SDS011;7036;50.834;4.718;2022-12-20T05:26:26;2.00;;;0.80;;
13927;SDS011;7036;50.834;4.718;2022-12-20T05:28:53;1.05;;;0.80;;
13927;SDS011;7036;50.834;4.718;2022-12-20T05:31:20;0.85;;;0.85;;
13927;SDS011;7036;50.834;4.718;2022-12-20T05:33:48;1.58;;;1.02;;
13927;SDS011;7036;50.834;4.718;2022-12-20T05:36:15;1.35;;;0.88;;
13927;SDS011;7036;50.834;4.718;2022-12-20T05:38:43;1.02;;;0.90;;
13927;SDS011;7036;50.834;4.718;2022-12-20T05:41:10;1.38;;;0.82;;
13927;SDS011;7036;50.834;4.718;2022-12-20T05:43:39;1.02;;;0.93;;
13927;SDS011;7036;50.834;4.718;2022-12-20T05:46:06;1.10;;;1.00;;
13927;SDS011;7036;50.834;4.718;2022-12-20T05:48:33;1.08;;;0.80;;
13927;SDS011;7036;50.834;4.718;2022-12-20T05:51:01;2.08;;;0.90;;
13927;SDS011;7036;50.834;4.718;2022-12-20T05:53:28;1.30;;;0.80;;
13927;SDS011;7036;50.834;4.718;2022-12-20T05:55:55;0.93;;;0.70;;
13927;SDS011;7036;50.834;4.718;2022-12-20T05:58:24;2.38;;;0.90;;
13927;SDS011;7036;50.834;4.718;2022-12-20T06:00:51;1.60;;;1.10;;
13927;SDS011;7036;50.834;4.718;2022-12-20T06:03:18;0.80;;;0.80;;
13927;SDS011;7036;50.834;4.718;2022-12-20T06:05:46;4.50;;;1.20;;
13927;SDS011;7036;50.834;4.718;2022-12-20T06:08:14;2.53;;;0.98;;
13927;SDS011;7036;50.834;4.718;2022-12-20T06:10:42;3.25;;;1.80;;
13927;SDS011;7036;50.834;4.718;2022-12-20T06:13:09;4.93;;;1.98;;
13927;SDS011;7036;50.834;4.718;2022-12-20T06:15:37;5.45;;;1.88;;
13927;SDS011;7036;50.834;4.718;2022-12-20T06:18:05;8.73;;;2.00;;
13927;SDS011;7036;50.834;4.718;2022-12-20T06:20:32;2.28;;;1.33;;
13927;SDS011;7036;50.834;4.718;2022-12-20T06:23:01;3.20;;;1.43;;
13927;SDS011;7036;50.834;4.718;2022-12-20T06:25:29;3.03;;;1.45;;
13927;SDS011;7036;50.834;4.718;2022-12-20T06:27:57;6.90;;;1.58;;
13927;SDS011;7036;50.834;4.718;2022-12-20T06:30:25;6.30;;;1.30;;
13927;SDS011;7036;50.834;4.718;2022-12-20T06:32:53;2.65;;;1.42;;
13927;SDS011;7036;50.834;4.718;2022-12-20T06:35:21;6.97;;;1.30;;
13927;SDS011;7036;50.834;4.718;2022-12-20T06:37:49;3.53;;;1.40;;
13927;SDS011;7036;50.834;4.718;2022-12-20T06:40:16;3.30;;;1.42;;
13927;SDS011;7036;50.834;4.718;2022-12-20T06:42:44;3.58;;;1.60;;
13927;SDS011;7036;50.834;4.718;2022-12-20T06:45:12;4.50;;;1.20;;
13927;SDS011;7036;50.834;4.718;2022-12-20T06:47:40;8.75;;;1.77;;
13927;SDS011;7036;50.834;4.718;2022-12-20T06:50:08;5.20;;;2.00;;
13927;SDS011;7036;50.834;4.718;2022-12-20T06:52:35;16.90;;;1.83;;
13927;SDS011;7036;50.834;4.718;2022-12-20T06:55:02;4.50;;;1.65;;
13927;SDS011;7036;50.834;4.718;2022-12-20T06:57:30;4.45;;;1.42;;
13927;SDS011;7036;50.834;4.718;2022-12-20T06:59:58;5.82;;;1.60;;
13927;SDS011;7036;50.834;4.718;2022-12-20T07:02:26;8.45;;;1.98;;
13927;SDS011;7036;50.834;4.718;2022-12-20T07:04:54;4.53;;;1.73;;
13927;SDS011;7036;50.834;4.718;2022-12-20T07:07:22;4.63;;;1.80;;
13927;SDS011;7036;50.834;4.718;2022-12-20T07:09:50;8.23;;;2.10;;
13927;SDS011;7036;50.834;4.718;2022-12-20T07:12:17;6.80;;;2.00;;
13927;SDS011;7036;50.834;4.718;2022-12-20T07:14:45;12.30;;;2.47;;
13927;SDS011;7036;50.834;4.718;2022-12-20T07:17:12;7.53;;;2.45;;
13927;SDS011;7036;50.834;4.718;2022-12-20T07:19:39;5.82;;;1.90;;
13927;SDS011;7036;50.834;4.718;2022-12-20T07:22:07;7.13;;;1.90;;
13927;SDS011;7036;50.834;4.718;2022-12-20T07:24:36;5.57;;;1.83;;
13927;SDS011;7036;50.834;4.718;2022-12-20T07:27:02;8.77;;;1.90;;
13927;SDS011;7036;50.834;4.718;2022-12-20T07:29:31;4.55;;;1.75;;
13927;SDS011;7036;50.834;4.718;2022-12-20T07:31:58;5.53;;;2.23;;
13927;SDS011;7036;50.834;4.718;2022-12-20T07:34:25;6.13;;;2.28;;
13927;SDS011;7036;50.834;4.718;2022-12-20T07:36:53;5.05;;;2.05;;
13927;SDS011;7036;50.834;4.718;2022-12-20T07:39:21;3.75;;;1.67;;
13927;SDS011;7036;50.834;4.718;2022-12-20T07:41:53;9.30;;;2.05;;
13927;SDS011;7036;50.834;4.718;2022-12-20T07:44:19;5.93;;;1.67;;
13927;SDS011;7036;50.834;4.718;2022-12-20T07:46:47;3.70;;;1.73;;
13927;SDS011;7036;50.834;4.718;2022-12-20T07:49:15;7.22;;;1.80;;
13927;SDS011;7036;50.834;4.718;2022-12-20T07:51:47;4.35;;;1.73;;
13927;SDS011;7036;50.834;4.718;2022-12-20T07:54:32;3.87;;;1.47;;
13927;SDS011;7036;50.834;4.718;2022-12-20T07:56:59;3.93;;;1.80;;
13927;SDS011;7036;50.834;4.718;2022-12-20T07:59:32;5.90;;;1.80;;
13927;SDS011;7036;50.834;4.718;2022-12-20T08:01:56;3.80;;;1.70;;
13927;SDS011;7036;50.834;4.718;2022-12-20T08:04:24;4.95;;;2.13;;
13927;SDS011;7036;50.834;4.718;2022-12-20T08:06:52;4.85;;;1.80;;
13927;SDS011;7036;50.834;4.718;2022-12-20T08:09:20;4.25;;;1.83;;
13927;SDS011;7036;50.834;4.718;2022-12-20T08:11:48;5.05;;;1.90;;
13927;SDS011;7036;50.834;4.718;2022-12-20T08:14:16;5.13;;;1.67;;
13927;SDS011;7036;50.834;4.718;2022-12-20T08:16:43;3.13;;;1.48;;
13927;SDS011;7036;50.834;4.718;2022-12-20T08:19:11;2.35;;;1.52;;
13927;SDS011;7036;50.834;4.718;2022-12-20T08:21:39;6.45;;;1.88;;
13927;SDS011;7036;50.834;4.718;2022-12-20T08:24:07;6.13;;;1.73;;
13927;SDS011;7036;50.834;4.718;2022-12-20T08:26:38;6.78;;;1.85;;
13927;SDS011;7036;50.834;4.718;2022-12-20T08:29:04;4.53;;;1.50;;
13927;SDS011;7036;50.834;4.718;2022-12-20T08:31:32;7.00;;;1.77;;
13927;SDS011;7036;50.834;4.718;2022-12-20T08:33:59;3.17;;;1.27;;
13927;SDS011;7036;50.834;4.718;2022-12-20T08:36:27;4.32;;;1.70;;
13927;SDS011;7036;50.834;4.718;2022-12-20T08:38:55;1.92;;;1.27;;
13927;SDS011;7036;50.834;4.718;2022-12-20T08:41:23;3.35;;;1.33;;
13927;SDS011;7036;50.834;4.718;2022-12-20T08:43:50;4.43;;;1.25;;
13927;SDS011;7036;50.834;4.718;2022-12-20T08:46:18;4.57;;;1.30;;
13927;SDS011;7036;50.834;4.718;2022-12-20T08:48:46;4.22;;;1.40;;
13927;SDS011;7036;50.834;4.718;2022-12-20T08:51:14;3.37;;;1.30;;
13927;SDS011;7036;50.834;4.718;2022-12-20T08:53:41;1.70;;;1.43;;
13927;SDS011;7036;50.834;4.718;2022-12-20T08:56:12;2.17;;;1.60;;
13927;SDS011;7036;50.834;4.718;2022-12-20T08:58:38;5.77;;;1.43;;
13927;SDS011;7036;50.834;4.718;2022-12-20T09:01:06;2.55;;;1.30;;
13927;SDS011;7036;50.834;4.718;2022-12-20T09:03:33;2.38;;;1.15;;
13927;SDS011;7036;50.834;4.718;2022-12-20T09:06:03;3.80;;;1.40;;
13927;SDS011;7036;50.834;4.718;2022-12-20T09:08:29;4.40;;;1.90;;
13927;SDS011;7036;50.834;4.718;2022-12-20T09:11:10;2.13;;;1.08;;
13927;SDS011;7036;50.834;4.718;2022-12-20T09:13:35;2.23;;;1.53;;
13927;SDS011;7036;50.834;4.718;2022-12-20T09:16:04;1.60;;;1.00;;
13927;SDS011;7036;50.834;4.718;2022-12-20T09:18:31;2.10;;;1.30;;
13927;SDS011;7036;50.834;4.718;2022-12-20T09:21:01;3.63;;;1.80;;
13927;SDS011;7036;50.834;4.718;2022-12-20T09:23:27;2.33;;;1.20;;
13927;SDS011;7036;50.834;4.718;2022-12-20T09:25:55;3.03;;;1.50;;
13927;SDS011;7036;50.834;4.718;2022-12-20T09:28:22;1.30;;;1.15;;
13927;SDS011;7036;50.834;4.718;2022-12-20T09:30:50;4.00;;;1.30;;
13927;SDS011;7036;50.834;4.718;2022-12-20T09:33:18;2.88;;;1.40;;
13927;SDS011;7036;50.834;4.718;2022-12-20T09:35:46;2.03;;;1.15;;
13927;SDS011;7036;50.834;4.718;2022-12-20T09:38:13;2.83;;;1.60;;
13927;SDS011;7036;50.834;4.718;2022-12-20T09:40:45;7.30;;;1.45;;
13927;SDS011;7036;50.834;4.718;2022-12-20T09:43:14;1.93;;;1.33;;
13927;SDS011;7036;50.834;4.718;2022-12-20T09:45:42;4.07;;;1.48;;
13927;SDS011;7036;50.834;4.718;2022-12-20T09:48:20;2.63;;;1.60;;
13927;SDS011;7036;50.834;4.718;2022-12-20T09:53:45;2.87;;;1.40;;
13927;SDS011;7036;50.834;4.718;2022-12-20T09:56:26;3.30;;;1.00;;
13927;SDS011;7036;50.834;4.718;2022-12-20T09:59:02;2.13;;;1.17;;
13927;SDS011;7036;50.834;4.718;2022-12-20T10:01:29;3.90;;;1.65;;
13927;SDS011;7036;50.834;4.718;2022-12-20T10:03:57;2.63;;;1.20;;
13927;SDS011;7036;50.834;4.718;2022-12-20T10:06:47;2.13;;;1.08;;
13927;SDS011;7036;50.834;4.718;2022-12-20T10:17:26;2.20;;;1.13;;
13927;SDS011;7036;50.834;4.718;2022-12-20T10:19:58;1.53;;;1.20;;
13927;SDS011;7036;50.834;4.718;2022-12-20T10:22:24;3.07;;;1.43;;
13927;SDS011;7036;50.834;4.718;2022-12-20T10:25:37;4.32;;;1.45;;
13927;SDS011;7036;50.834;4.718;2022-12-20T10:27:39;1.50;;;1.20;;
13927;SDS011;7036;50.834;4.718;2022-12-20T10:30:09;5.07;;;1.35;;
13927;SDS011;7036;50.834;4.718;2022-12-20T10:32:32;3.57;;;1.50;;
13927;SDS011;7036;50.834;4.718;2022-12-20T10:35:40;2.03;;;1.33;;
13927;SDS011;7036;50.834;4.718;2022-12-20T10:37:37;2.07;;;1.33;;
13927;SDS011;7036;50.834;4.718;2022-12-20T10:40:04;3.93;;;1.60;;
13927;SDS011;7036;50.834;4.718;2022-12-20T10:42:36;3.60;;;1.05;;
13927;SDS011;7036;50.834;4.718;2022-12-20T10:45:02;3.80;;;1.10;;
13927;SDS011;7036;50.834;4.718;2022-12-20T10:47:33;3.38;;;0.98;;
13927;SDS011;7036;50.834;4.718;2022-12-20T10:50:18;2.28;;;1.38;;
13927;SDS011;7036;50.834;4.718;2022-12-20T10:52:41;2.07;;;1.10;;
13927;SDS011;7036;50.834;4.718;2022-12-20T10:57:47;1.47;;;1.10;;
13927;SDS011;7036;50.834;4.718;2022-12-20T11:00:26;3.05;;;1.13;;
13927;SDS011;7036;50.834;4.718;2022-12-20T11:02:41;1.57;;;1.20;;
13927;SDS011;7036;50.834;4.718;2022-12-20T11:07:50;1.60;;;1.00;;
13927;SDS011;7036;50.834;4.718;2022-12-20T11:10:20;3.10;;;1.30;;
13927;SDS011;7036;50.834;4.718;2022-12-20T11:12:56;0.97;;;0.90;;
13927;SDS011;7036;50.834;4.718;2022-12-20T11:15:23;2.80;;;1.20;;
13927;SDS011;7036;50.834;4.718;2022-12-20T11:17:55;4.72;;;1.08;;
13927;SDS011;7036;50.834;4.718;2022-12-20T11:20:30;8.03;;;1.30;;
13927;SDS011;7036;50.834;4.718;2022-12-20T11:39:33;3.07;;;1.27;;
13927;SDS011;7036;50.834;4.718;2022-12-20T11:47:37;3.67;;;1.20;;
13927;SDS011;7036;50.834;4.718;2022-12-20T11:52:42;1.37;;;0.97;;
13927;SDS011;7036;50.834;4.718;2022-12-20T11:58:01;2.93;;;1.40;;
13927;SDS011;7036;50.834;4.718;2022-12-20T12:00:27;1.60;;;1.00;;
13927;SDS011;7036;50.834;4.718;2022-12-20T12:03:02;0.85;;;0.70;;
13927;SDS011;7036;50.834;4.718;2022-12-20T12:06:10;1.63;;;1.00;;
13927;SDS011;7036;50.834;4.718;2022-12-20T12:08:16;3.30;;;0.90;;
13927;SDS011;7036;50.834;4.718;2022-12-20T12:11:11;3.37;;;1.00;;
13927;SDS011;7036;50.834;4.718;2022-12-20T12:13:24;1.00;;;0.90;;
13927;SDS011;7036;50.834;4.718;2022-12-20T12:15:57;2.55;;;1.20;;
13927;SDS011;7036;50.834;4.718;2022-12-20T12:18:24;4.97;;;1.57;;
13927;SDS011;7036;50.834;4.718;2022-12-20T12:23:35;4.17;;;1.10;;
13927;SDS011;7036;50.834;4.718;2022-12-20T12:28:48;4.77;;;1.43;;
13927;SDS011;7036;50.834;4.718;2022-12-20T12:31:21;3.00;;;1.43;;
13927;SDS011;7036;50.834;4.718;2022-12-20T12:33:48;4.43;;;1.30;;
13927;SDS011;7036;50.834;4.718;2022-12-20T12:44:26;4.90;;;1.43;;
13927;SDS011;7036;50.834;4.718;2022-12-20T12:46:51;2.47;;;1.10;;
13927;SDS011;7036;50.834;4.718;2022-12-20T12:49:16;6.03;;;1.52;;
13927;SDS011;7036;50.834;4.718;2022-12-20T12:51:49;3.05;;;1.40;;
13927;SDS011;7036;50.834;4.718;2022-12-20T12:54:23;5.90;;;1.60;;
13927;SDS011;7036;50.834;4.718;2022-12-20T12:57:15;2.97;;;1.33;;
13927;SDS011;7036;50.834;4.718;2022-12-20T13:10:00;3.80;;;1.60;;
13927;SDS011;7036;50.834;4.718;2022-12-20T13:19:57;1.63;;;1.23;;
13927;SDS011;7036;50.834;4.718;2022-12-20T13:22:25;2.97;;;1.25;;
13927;SDS011;7036;50.834;4.718;2022-12-20T13:25:01;5.60;;;1.10;;
13927;SDS011;7036;50.834;4.718;2022-12-20T13:27:36;4.40;;;2.10;;
13927;SDS011;7036;50.834;4.718;2022-12-20T13:37:51;1.47;;;1.20;;
13927;SDS011;7036;50.834;4.718;2022-12-20T13:40:42;4.43;;;1.13;;
13927;SDS011;7036;50.834;4.718;2022-12-20T13:45:42;2.90;;;1.20;;
13927;SDS011;7036;50.834;4.718;2022-12-20T13:48:11;2.78;;;1.10;;
13927;SDS011;7036;50.834;4.718;2022-12-20T13:50:39;0.83;;;0.83;;
13927;SDS011;7036;50.834;4.718;2022-12-20T13:53:13;2.87;;;0.87;;
13927;SDS011;7036;50.834;4.718;2022-12-20T13:55:37;1.95;;;1.30;;
13927;SDS011;7036;50.834;4.718;2022-12-20T13:58:05;2.20;;;1.20;;
13927;SDS011;7036;50.834;4.718;2022-12-20T14:00:30;2.53;;;0.90;;
13927;SDS011;7036;50.834;4.718;2022-12-20T14:02:59;4.00;;;1.35;;
13927;SDS011;7036;50.834;4.718;2022-12-20T14:05:30;1.15;;;0.70;;
13927;SDS011;7036;50.834;4.718;2022-12-20T14:07:55;4.90;;;1.10;;
13927;SDS011;7036;50.834;4.718;2022-12-20T14:10:33;1.77;;;1.00;;
13927;SDS011;7036;50.834;4.718;2022-12-20T14:13:00;1.42;;;1.08;;
13927;SDS011;7036;50.834;4.718;2022-12-20T14:15:32;1.45;;;0.95;;
13927;SDS011;7036;50.834;4.718;2022-12-20T14:18:06;2.30;;;1.10;;
13927;SDS011;7036;50.834;4.718;2022-12-20T14:20:32;1.77;;;1.07;;
13927;SDS011;7036;50.834;4.718;2022-12-20T14:23:14;2.47;;;1.33;;
13927;SDS011;7036;50.834;4.718;2022-12-20T14:25:56;1.23;;;0.90;;
13927;SDS011;7036;50.834;4.718;2022-12-20T14:28:26;1.95;;;1.00;;
13927;SDS011;7036;50.834;4.718;2022-12-20T14:31:07;1.70;;;1.00;;
13927;SDS011;7036;50.834;4.718;2022-12-20T14:33:37;1.92;;;1.13;;
13927;SDS011;7036;50.834;4.718;2022-12-20T14:38:43;1.40;;;1.00;;
13927;SDS011;7036;50.834;4.718;2022-12-20T14:43:55;1.03;;;0.80;;
13927;SDS011;7036;50.834;4.718;2022-12-20T14:46:23;1.75;;;1.00;;
13927;SDS011;7036;50.834;4.718;2022-12-20T14:51:43;1.10;;;0.90;;
13927;SDS011;7036;50.834;4.718;2022-12-20T14:54:12;2.33;;;1.20;;
13927;SDS011;7036;50.834;4.718;2022-12-20T14:56:43;1.27;;;0.75;;
13927;SDS011;7036;50.834;4.718;2022-12-20T14:59:12;5.57;;;1.08;;
13927;SDS011;7036;50.834;4.718;2022-12-20T15:01:33;1.73;;;1.10;;
13927;SDS011;7036;50.834;4.718;2022-12-20T15:04:01;1.55;;;0.70;;
13927;SDS011;7036;50.834;4.718;2022-12-20T15:06:44;2.03;;;0.98;;
13927;SDS011;7036;50.834;4.718;2022-12-20T15:09:10;3.97;;;1.30;;
13927;SDS011;7036;50.834;4.718;2022-12-20T15:11:38;5.35;;;1.35;;
13927;SDS011;7036;50.834;4.718;2022-12-20T15:16:53;2.20;;;1.00;;
13927;SDS011;7036;50.834;4.718;2022-12-20T15:19:21;1.20;;;0.80;;
13927;SDS011;7036;50.834;4.718;2022-12-20T15:21:47;1.30;;;1.00;;
13927;SDS011;7036;50.834;4.718;2022-12-20T15:24:16;1.67;;;0.90;;
13927;SDS011;7036;50.834;4.718;2022-12-20T15:26:42;1.10;;;0.82;;
13927;SDS011;7036;50.834;4.718;2022-12-20T15:29:28;1.88;;;1.00;;
13927;SDS011;7036;50.834;4.718;2022-12-20T15:31:46;0.93;;;0.90;;
13927;SDS011;7036;50.834;4.718;2022-12-20T15:34:29;1.00;;;0.90;;
13927;SDS011;7036;50.834;4.718;2022-12-20T15:36:57;2.27;;;1.20;;
13927;SDS011;7036;50.834;4.718;2022-12-20T15:39:25;1.98;;;1.15;;
13927;SDS011;7036;50.834;4.718;2022-12-20T15:41:52;1.00;;;0.77;;
13927;SDS011;7036;50.834;4.718;2022-12-20T15:44:22;1.27;;;0.98;;
13927;SDS011;7036;50.834;4.718;2022-12-20T15:46:48;3.13;;;1.03;;
13927;SDS011;7036;50.834;4.718;2022-12-20T15:49:20;4.47;;;1.13;;
13927;SDS011;7036;50.834;4.718;2022-12-20T15:51:46;3.03;;;0.73;;
13927;SDS011;7036;50.834;4.718;2022-12-20T15:56:49;1.67;;;1.20;;
13927;SDS011;7036;50.834;4.718;2022-12-20T15:59:17;2.28;;;1.13;;
13927;SDS011;7036;50.834;4.718;2022-12-20T16:01:46;2.53;;;1.63;;
13927;SDS011;7036;50.834;4.718;2022-12-20T16:04:16;3.53;;;1.40;;
13927;SDS011;7036;50.834;4.718;2022-12-20T16:06:40;3.05;;;1.45;;
13927;SDS011;7036;50.834;4.718;2022-12-20T16:09:08;4.15;;;1.30;;
13927;SDS011;7036;50.834;4.718;2022-12-20T16:11:35;3.83;;;1.48;;
13927;SDS011;7036;50.834;4.718;2022-12-20T16:14:03;4.07;;;1.55;;
13927;SDS011;7036;50.834;4.718;2022-12-20T16:16:33;9.73;;;1.60;;
13927;SDS011;7036;50.834;4.718;2022-12-20T16:18:59;2.30;;;1.60;;
13927;SDS011;7036;50.834;4.718;2022-12-20T16:21:30;5.72;;;1.55;;
13927;SDS011;7036;50.834;4.718;2022-12-20T16:23:57;3.47;;;1.40;;
13927;SDS011;7036;50.834;4.718;2022-12-20T16:26:25;2.40;;;1.42;;
13927;SDS011;7036;50.834;4.718;2022-12-20T16:28:53;1.98;;;1.17;;
13927;SDS011;7036;50.834;4.718;2022-12-20T16:31:35;2.03;;;1.50;;
13927;SDS011;7036;50.834;4.718;2022-12-20T16:34:06;2.03;;;1.60;;
13927;SDS011;7036;50.834;4.718;2022-12-20T16:36:33;2.00;;;1.10;;
13927;SDS011;7036;50.834;4.718;2022-12-20T16:39:00;1.52;;;1.17;;
13927;SDS011;7036;50.834;4.718;2022-12-20T16:41:30;1.75;;;1.25;;
13927;SDS011;7036;50.834;4.718;2022-12-20T16:43:57;2.78;;;1.42;;
13927;SDS011;7036;50.834;4.718;2022-12-20T16:46:26;1.95;;;1.25;;
13927;SDS011;7036;50.834;4.718;2022-12-20T16:48:52;1.90;;;1.40;;
13927;SDS011;7036;50.834;4.718;2022-12-20T16:51:33;1.75;;;1.00;;
13927;SDS011;7036;50.834;4.718;2022-12-20T16:54:00;2.13;;;1.17;;
13927;SDS011;7036;50.834;4.718;2022-12-20T16:56:28;1.10;;;1.00;;
13927;SDS011;7036;50.834;4.718;2022-12-20T16:58:56;3.83;;;1.75;;
13927;SDS011;7036;50.834;4.718;2022-12-20T17:01:27;1.67;;;1.20;;